createdAt,value
2018-07-24T00:01:35.788Z,14.70
2018-07-24T00:04:07.145Z,14.80
2018-07-24T00:06:35.680Z,15.13
2018-07-24T00:09:06.510Z,15.07
2018-07-24T00:11:35.248Z,15.10
2018-07-24T00:14:04.560Z,15.20
2018-07-24T00:16:33.157Z,14.80
2018-07-24T00:19:02.942Z,13.70
2018-07-24T00:21:31.534Z,14.87
2018-07-24T00:24:05.178Z,13.87
2018-07-24T00:26:33.800Z,13.37
2018-07-24T00:29:02.320Z,14.30
2018-07-24T00:31:30.930Z,14.50
2018-07-24T00:33:59.480Z,15.20
2018-07-24T00:36:28.050Z,14.30
2018-07-24T00:38:59.938Z,15.03
2018-07-24T00:41:34.167Z,15.00
2018-07-24T00:44:03.474Z,15.43
2018-07-24T00:46:32.601Z,15.70
2018-07-24T00:49:01.106Z,15.47
2018-07-24T00:51:29.645Z,13.93
2018-07-24T00:53:58.258Z,14.50
2018-07-24T00:56:27.136Z,13.90
2018-07-24T00:58:55.900Z,14.30
2018-07-24T01:01:24.605Z,14.00
2018-07-24T01:03:55.984Z,13.13
2018-07-24T01:06:24.585Z,14.23
2018-07-24T01:08:53.113Z,13.87
2018-07-24T01:11:26.915Z,12.93
2018-07-24T01:13:56.041Z,11.80
2018-07-24T01:16:24.557Z,13.10
2018-07-24T01:18:53.108Z,11.77
2018-07-24T01:21:22.206Z,12.80
2018-07-24T01:23:50.759Z,11.77
2018-07-24T01:26:23.420Z,12.90
2018-07-24T01:28:52.254Z,12.70
2018-07-24T01:31:22.744Z,12.97
2018-07-24T01:33:51.419Z,11.90
2018-07-24T01:36:20.424Z,13.50
2018-07-24T01:38:48.955Z,11.77
2018-07-24T01:41:18.873Z,12.53
2018-07-24T01:43:47.457Z,12.97
2018-07-24T01:46:18.278Z,13.20
2018-07-24T01:48:46.771Z,12.70
2018-07-24T01:51:15.359Z,13.13
2018-07-24T01:53:44.222Z,13.53
2018-07-24T01:56:13.142Z,13.50
2018-07-24T01:58:41.759Z,12.33
2018-07-24T02:01:10.352Z,14.40
2018-07-24T02:03:38.842Z,11.90
2018-07-24T02:06:08.898Z,13.10
2018-07-24T02:08:37.439Z,12.73
2018-07-24T02:11:06.022Z,12.77
2018-07-24T02:13:34.599Z,13.23
2018-07-24T02:16:04.252Z,13.33
2018-07-24T02:18:38.649Z,13.00
2018-07-24T02:21:07.465Z,13.27
2018-07-24T02:23:36.706Z,13.40
2018-07-24T02:26:06.505Z,13.30
2018-07-24T02:28:38.497Z,14.13
2018-07-24T02:31:07.154Z,13.00
2018-07-24T02:33:35.806Z,13.13
2018-07-24T02:36:06.195Z,13.63
2018-07-24T02:38:34.725Z,13.20
2018-07-24T02:41:03.407Z,13.33
2018-07-24T02:43:32.144Z,12.53
2018-07-24T02:46:00.804Z,14.00
2018-07-24T02:48:29.313Z,12.80
2018-07-24T02:50:58.185Z,13.67
2018-07-24T02:53:27.136Z,12.90
2018-07-24T02:55:55.757Z,13.63
2018-07-24T02:58:24.327Z,12.93
2018-07-24T03:00:53.216Z,13.50
2018-07-24T03:03:22.039Z,13.30
2018-07-24T03:05:50.662Z,14.20
2018-07-24T03:08:19.272Z,14.13
2018-07-24T03:10:47.858Z,15.17
2018-07-24T03:13:17.039Z,15.30
2018-07-24T03:15:45.572Z,13.20
2018-07-24T03:18:20.614Z,14.47
2018-07-24T03:20:49.524Z,14.70
2018-07-24T03:23:18.137Z,14.07
2018-07-24T03:25:46.701Z,14.33
2018-07-24T03:30:49.266Z,14.70
2018-07-24T03:33:24.186Z,14.87
2018-07-24T03:35:52.818Z,14.80
2018-07-24T03:38:21.428Z,13.33
2018-07-24T03:40:50.060Z,12.70
2018-07-24T03:43:19.183Z,12.70
2018-07-24T03:45:50.481Z,12.13
2018-07-24T03:48:19.012Z,12.97
2018-07-24T03:50:47.581Z,13.90
2018-07-24T03:53:16.396Z,14.70
2018-07-24T03:55:44.937Z,14.10
2018-07-24T03:58:24.807Z,13.83
2018-07-24T04:01:00.320Z,16.00
2018-07-24T04:03:30.533Z,15.00
2018-07-24T04:05:59.163Z,15.90
2018-07-24T04:08:27.735Z,15.00
2018-07-24T04:10:56.808Z,15.07
2018-07-24T04:13:25.454Z,14.77
2018-07-24T04:15:54.039Z,15.27
2018-07-24T04:18:22.656Z,15.30
2018-07-24T04:20:53.147Z,15.87
2018-07-24T04:23:21.753Z,16.30
2018-07-24T04:25:55.949Z,16.20
2018-07-24T04:28:24.519Z,15.80
2018-07-24T04:30:53.488Z,17.43
2018-07-24T04:33:22.271Z,18.60
2018-07-24T04:35:56.745Z,16.93
2018-07-24T04:38:25.613Z,19.00
2018-07-24T04:40:54.206Z,18.20
2018-07-24T04:43:22.783Z,18.27
2018-07-24T04:45:51.561Z,17.60
2018-07-24T04:48:20.401Z,18.77
2018-07-24T04:50:48.974Z,16.50
2018-07-24T04:53:17.883Z,15.20
2018-07-24T04:55:46.423Z,14.27
2018-07-24T04:58:16.836Z,15.07
2018-07-24T05:00:45.425Z,12.57
2018-07-24T05:03:14.072Z,11.53
2018-07-24T05:05:45.961Z,12.83
2018-07-24T05:08:14.519Z,28.93
2018-07-24T05:10:43.142Z,13.67
2018-07-24T05:13:12.279Z,12.67
2018-07-24T05:15:41.228Z,13.20
2018-07-24T05:18:09.807Z,13.67
2018-07-24T05:20:49.284Z,12.47
2018-07-24T05:23:17.863Z,12.60
2018-07-24T05:25:46.813Z,13.03
2018-07-24T05:28:15.384Z,12.87
2018-07-24T05:30:47.276Z,13.80
2018-07-24T05:33:16.165Z,14.47
2018-07-24T05:35:44.743Z,16.00
2018-07-24T05:38:13.374Z,17.20
2018-07-24T05:40:47.585Z,19.00
2018-07-24T05:43:16.499Z,18.57
2018-07-24T05:45:45.064Z,20.50
2018-07-24T05:48:13.588Z,17.70
2018-07-24T05:50:42.555Z,17.10
2018-07-24T05:53:11.120Z,25.60
2018-07-24T05:55:39.651Z,16.57
2018-07-24T05:58:08.605Z,16.13
2018-07-24T06:00:37.235Z,17.07
2018-07-24T06:03:05.861Z,18.03
2018-07-24T06:05:34.671Z,17.17
2018-07-24T06:08:04.200Z,17.57
2018-07-24T06:10:32.868Z,17.50
2018-07-24T06:13:02.031Z,19.60
2018-07-24T06:15:30.914Z,20.60
2018-07-24T06:18:03.467Z,20.30
2018-07-24T06:20:32.084Z,18.80
2018-07-24T06:23:00.795Z,20.40
2018-07-24T06:25:34.387Z,18.53
2018-07-24T06:28:03.767Z,19.90
2018-07-24T06:30:32.465Z,18.80
2018-07-24T06:33:01.531Z,19.43
2018-07-24T06:35:30.050Z,17.20
2018-07-24T06:37:58.646Z,19.60
2018-07-24T06:40:29.039Z,42.40
2018-07-24T06:42:57.648Z,21.13
2018-07-24T06:45:31.414Z,18.87
2018-07-24T06:48:00.306Z,20.87
2018-07-24T06:50:29.271Z,20.73
2018-07-24T06:52:57.903Z,19.97
2018-07-24T06:55:26.812Z,21.27
2018-07-24T06:58:03.552Z,19.53
2018-07-24T07:00:32.051Z,22.07
2018-07-24T07:03:00.687Z,20.13
2018-07-24T07:05:29.477Z,23.10
2018-07-24T07:07:58.323Z,27.03
2018-07-24T07:10:26.988Z,21.57
2018-07-24T07:12:55.638Z,23.43
2018-07-24T07:15:24.230Z,21.63
2018-07-24T07:17:52.885Z,22.63
2018-07-24T07:20:21.859Z,21.00
2018-07-24T07:22:50.393Z,22.03
2018-07-24T07:25:19.071Z,23.53
2018-07-24T07:27:48.001Z,24.33
2018-07-24T07:30:23.716Z,25.70
2018-07-24T07:32:52.495Z,24.40
2018-07-24T07:35:21.167Z,27.40
2018-07-24T07:37:49.763Z,25.50
2018-07-24T07:40:19.414Z,28.57
2018-07-24T07:42:48.101Z,27.30
2018-07-24T07:45:16.852Z,27.90
2018-07-24T07:47:45.680Z,26.80
2018-07-24T07:50:19.164Z,25.73
2018-07-24T07:52:48.045Z,25.83
2018-07-24T07:55:16.665Z,27.87
2018-07-24T07:57:45.196Z,27.70
2018-07-24T08:00:14.848Z,22.90
2018-07-24T08:02:43.343Z,24.53
2018-07-24T08:05:11.843Z,26.37
2018-07-24T08:07:40.408Z,25.40
2018-07-24T08:10:09.040Z,22.90
2018-07-24T08:12:37.879Z,21.37
2018-07-24T08:15:06.722Z,16.70
2018-07-24T08:17:35.786Z,21.07
2018-07-24T08:20:05.841Z,14.53
2018-07-24T08:22:34.475Z,16.97
2018-07-24T08:25:03.157Z,17.13
2018-07-24T08:27:35.500Z,20.03
2018-07-24T08:30:05.288Z,15.67
2018-07-24T08:32:33.955Z,15.80
2018-07-24T08:35:03.004Z,19.73
2018-07-24T08:37:31.762Z,18.83
2018-07-24T08:40:00.480Z,15.97
2018-07-24T08:42:29.377Z,16.20
2018-07-24T08:44:57.945Z,17.47
2018-07-24T08:47:26.470Z,17.70
2018-07-24T08:50:04.732Z,16.33
2018-07-24T08:52:33.357Z,18.23
2018-07-24T08:55:02.206Z,15.20
2018-07-24T08:57:30.557Z,17.33
2018-07-24T09:00:06.654Z,14.87
2018-07-24T09:02:35.460Z,16.20
2018-07-24T09:05:04.579Z,17.03
2018-07-24T09:07:33.153Z,16.67
2018-07-24T09:10:03.742Z,16.93
2018-07-24T09:12:34.490Z,14.93
2018-07-24T09:15:03.621Z,14.50
2018-07-24T09:17:39.054Z,14.30
2018-07-24T09:20:07.811Z,13.00
2018-07-24T09:22:37.055Z,12.40
2018-07-24T09:25:05.899Z,14.23
2018-07-24T09:27:39.779Z,13.13
2018-07-24T09:30:08.372Z,12.63
2018-07-24T09:32:36.942Z,12.67
2018-07-24T09:35:05.720Z,11.73
2018-07-24T09:37:37.526Z,10.90
2018-07-24T09:40:08.056Z,10.80
2018-07-24T09:42:36.550Z,11.77
2018-07-24T09:45:06.031Z,12.17
2018-07-24T09:47:34.652Z,11.40
2018-07-24T09:50:06.731Z,10.23
2018-07-24T09:52:35.357Z,10.43
2018-07-24T09:55:09.311Z,9.33
2018-07-24T09:57:38.180Z,8.07
2018-07-24T10:00:08.077Z,10.07
2018-07-24T10:02:37.194Z,10.10
2018-07-24T10:05:05.984Z,9.67
2018-07-24T10:07:34.827Z,9.57
2018-07-24T10:10:04.808Z,8.70
2018-07-24T10:12:33.898Z,8.87
2018-07-24T10:15:02.633Z,8.80
2018-07-24T10:17:34.872Z,8.70
2018-07-24T10:20:04.560Z,9.83
2018-07-24T10:22:33.142Z,9.33
2018-07-24T10:25:02.247Z,10.20
2018-07-24T10:27:30.950Z,8.43
2018-07-24T10:29:59.727Z,9.37
2018-07-24T10:32:28.366Z,8.60
2018-07-24T10:34:57.068Z,8.37
2018-07-24T10:37:25.970Z,9.00
2018-07-24T10:39:54.578Z,7.53
2018-07-24T10:42:23.278Z,7.00
2018-07-24T10:44:52.301Z,8.00
2018-07-24T10:47:20.878Z,7.90
2018-07-24T10:49:49.832Z,7.30
2018-07-24T10:52:19.430Z,7.50
2018-07-24T10:54:48.880Z,8.50
2018-07-24T10:57:23.539Z,6.17
2018-07-24T10:59:52.809Z,6.60
2018-07-24T11:02:22.281Z,7.73
2018-07-24T11:04:51.250Z,7.40
2018-07-24T11:07:22.964Z,6.43
2018-07-24T11:09:52.978Z,6.60
2018-07-24T11:12:21.698Z,6.37
2018-07-24T11:14:50.487Z,6.43
2018-07-24T11:17:19.789Z,6.80
2018-07-24T11:19:48.751Z,7.40
2018-07-24T11:22:17.417Z,6.00
2018-07-24T11:24:46.479Z,6.47
2018-07-24T11:27:15.469Z,8.17
2018-07-24T11:29:44.473Z,8.00
2018-07-24T11:32:15.386Z,6.23
2018-07-24T11:34:45.292Z,6.77
2018-07-24T11:37:14.085Z,7.50
2018-07-24T11:39:44.233Z,7.07
2018-07-24T11:42:19.557Z,7.87
2018-07-24T11:44:48.276Z,7.53
2018-07-24T11:47:16.950Z,7.00
2018-07-24T11:49:45.851Z,6.23
2018-07-24T11:52:14.996Z,7.47
2018-07-24T11:54:50.608Z,6.77
2018-07-24T11:57:19.291Z,7.77
2018-07-24T11:59:54.951Z,6.97
2018-07-24T12:02:24.334Z,6.77
2018-07-24T12:04:53.568Z,6.90
2018-07-24T12:07:22.478Z,7.10
2018-07-24T12:09:51.116Z,6.70
2018-07-24T12:12:20.391Z,7.20
2018-07-24T12:14:53.183Z,7.53
2018-07-24T12:17:23.711Z,6.27
2018-07-24T12:19:52.557Z,6.97
2018-07-24T12:22:23.883Z,6.73
2018-07-24T12:24:54.054Z,6.80
2018-07-24T12:27:22.912Z,6.70
2018-07-24T12:29:51.648Z,7.10
2018-07-24T12:32:20.439Z,7.07
2018-07-24T12:34:50.525Z,7.37
2018-07-24T12:37:21.735Z,6.07
2018-07-24T12:39:55.474Z,6.80
2018-07-24T12:42:24.742Z,6.70
2018-07-24T12:44:55.243Z,6.73
2018-07-24T12:47:25.204Z,5.80
2018-07-24T12:49:53.933Z,5.47
2018-07-24T12:52:24.386Z,6.03
2018-07-24T12:54:53.707Z,6.53
2018-07-24T12:57:22.489Z,6.70
2018-07-24T12:59:51.252Z,6.00
2018-07-24T13:02:20.221Z,5.60
2018-07-24T13:04:49.474Z,5.20
2018-07-24T13:07:18.150Z,5.10
2018-07-24T13:09:47.059Z,5.37
2018-07-24T13:12:16.136Z,5.50
2018-07-24T13:14:45.103Z,6.10
2018-07-24T13:17:14.300Z,6.73
2018-07-24T13:19:55.049Z,5.63
2018-07-24T13:22:30.315Z,6.20
2018-07-24T13:24:59.795Z,6.80
2018-07-24T13:27:31.941Z,5.27
2018-07-24T13:30:02.744Z,5.80
2018-07-24T13:32:42.353Z,5.60
2018-07-24T13:35:11.484Z,5.67
2018-07-24T13:37:40.263Z,5.42
2018-07-24T13:40:11.337Z,5.35
2018-07-24T13:42:40.481Z,4.42
2018-07-24T13:45:11.579Z,4.62
2018-07-24T13:47:40.629Z,5.17
2018-07-24T13:50:14.970Z,5.53
2018-07-24T13:52:45.941Z,5.97
2018-07-24T13:55:15.355Z,5.35
2018-07-24T13:57:44.570Z,4.55
2018-07-24T14:00:13.274Z,4.58
2018-07-24T14:02:42.096Z,4.87
2018-07-24T14:05:14.769Z,4.72
2018-07-24T14:07:43.746Z,4.65
2018-07-24T14:10:18.617Z,4.40
2018-07-24T14:12:48.045Z,4.75
2018-07-24T14:15:22.326Z,4.55
2018-07-24T14:17:51.250Z,3.92
2018-07-24T14:20:20.151Z,4.08
2018-07-24T14:22:49.164Z,4.90
2018-07-24T14:25:18.118Z,4.42
2018-07-24T14:27:47.332Z,4.58
2018-07-24T14:30:15.977Z,4.35
2018-07-24T14:32:50.293Z,4.42
2018-07-24T14:35:19.365Z,4.40
2018-07-24T14:38:02.659Z,4.00
2018-07-24T14:40:33.717Z,4.37
2018-07-24T14:43:03.795Z,4.37
2018-07-24T14:45:33.176Z,4.33
2018-07-24T14:48:08.671Z,4.15
2018-07-24T14:50:37.548Z,5.80
2018-07-24T14:53:08.072Z,4.60
2018-07-24T14:55:36.972Z,3.65
2018-07-24T14:58:06.647Z,3.50
2018-07-24T15:00:35.427Z,3.60
2018-07-24T15:03:04.446Z,3.83
2018-07-24T15:05:33.587Z,3.65
2018-07-24T15:08:03.534Z,3.80
2018-07-24T15:10:32.509Z,3.52
2018-07-24T15:13:03.490Z,3.83
2018-07-24T15:15:32.306Z,4.30
2018-07-24T15:18:03.383Z,3.72
2018-07-24T15:20:32.217Z,4.00
2018-07-24T15:23:15.033Z,4.45
2018-07-24T15:26:06.916Z,4.80
2018-07-24T15:28:36.709Z,4.20
2018-07-24T15:31:09.368Z,4.53
2018-07-24T15:33:38.479Z,4.58
2018-07-24T15:36:07.402Z,4.78
2018-07-24T15:38:39.793Z,4.45
2018-07-24T15:41:09.060Z,4.10
2018-07-24T15:43:44.450Z,5.20
2018-07-24T15:46:13.483Z,3.90
2018-07-24T15:48:42.328Z,4.50
2018-07-24T15:51:16.321Z,4.70
2018-07-24T15:53:45.034Z,4.40
2018-07-24T15:56:13.658Z,4.08
2018-07-24T15:58:42.751Z,4.08
2018-07-24T16:01:11.352Z,4.60
2018-07-24T16:03:45.065Z,4.45
2018-07-24T16:06:14.125Z,5.20
2018-07-24T16:08:42.912Z,4.60
2018-07-24T16:11:12.472Z,4.73
2018-07-24T16:13:41.259Z,5.33
2018-07-24T16:16:11.280Z,5.43
2018-07-24T16:18:39.891Z,6.10
2018-07-24T16:21:09.158Z,5.80
2018-07-24T16:23:38.152Z,5.50
2018-07-24T16:26:07.007Z,5.53
2018-07-24T16:28:35.761Z,5.50
2018-07-24T16:31:05.038Z,4.77
2018-07-24T16:33:34.051Z,5.40
2018-07-24T16:36:04.365Z,6.30
2018-07-24T16:38:33.791Z,6.10
2018-07-24T16:41:08.605Z,5.40
2018-07-24T16:43:37.277Z,6.23
2018-07-24T16:46:06.486Z,5.97
2018-07-24T16:48:36.397Z,6.00
2018-07-24T16:51:06.802Z,5.70
2018-07-24T16:53:35.860Z,6.00
2018-07-24T16:56:06.328Z,6.33
2018-07-24T16:58:35.147Z,5.13
2018-07-24T17:01:04.104Z,5.80
2018-07-24T17:03:33.369Z,5.80
2018-07-24T17:06:10.828Z,5.97
2018-07-24T17:08:40.101Z,6.07
2018-07-24T17:11:09.394Z,5.80
2018-07-24T17:13:38.959Z,5.37
2018-07-24T17:16:08.113Z,5.90
2018-07-24T17:18:36.677Z,6.40
2018-07-24T17:21:05.732Z,5.80
2018-07-24T17:23:35.132Z,5.60
2018-07-24T17:26:04.632Z,6.10
2018-07-24T17:28:34.186Z,5.93
2018-07-24T17:31:03.557Z,5.60
2018-07-24T17:33:32.301Z,5.77
2018-07-24T17:36:00.927Z,7.43
2018-07-24T17:38:41.013Z,6.10
2018-07-24T17:41:09.992Z,5.30
2018-07-24T17:43:38.615Z,5.43
2018-07-24T17:46:07.405Z,6.07
2018-07-24T17:48:36.253Z,5.70
2018-07-24T17:51:07.675Z,6.50
2018-07-24T17:53:36.297Z,6.67
2018-07-24T17:56:08.236Z,6.37
2018-07-24T17:58:37.458Z,18.30
2018-07-24T18:01:06.631Z,20.43
2018-07-24T18:03:35.413Z,25.43
2018-07-24T18:06:06.448Z,24.90
2018-07-24T18:08:35.005Z,10.97
2018-07-24T18:11:03.892Z,11.73
2018-07-24T18:13:33.377Z,22.70
2018-07-24T18:16:03.071Z,15.53
2018-07-24T18:18:31.806Z,18.43
2018-07-24T18:21:15.626Z,15.30
2018-07-24T18:23:44.216Z,11.03
2018-07-24T18:26:14.445Z,10.00
2018-07-24T18:28:43.067Z,10.47
2018-07-24T18:31:13.895Z,9.80
2018-07-24T18:33:42.547Z,9.73
2018-07-24T18:36:15.155Z,9.93
2018-07-24T18:38:44.045Z,10.73
2018-07-24T18:41:13.128Z,27.97
2018-07-24T18:43:42.502Z,9.80
2018-07-24T18:46:11.284Z,8.53
2018-07-24T18:48:41.806Z,8.70
2018-07-24T18:51:10.518Z,8.20
2018-07-24T18:53:39.413Z,8.53
2018-07-24T19:09:21.668Z,8.27
2018-07-24T19:11:50.592Z,7.63
2018-07-24T19:14:19.414Z,9.60
2018-07-24T19:16:49.429Z,10.57
2018-07-24T19:19:18.383Z,10.60
2018-07-24T19:21:47.035Z,12.83
2018-07-24T19:24:20.674Z,9.60
2018-07-24T19:26:49.566Z,10.43
2018-07-24T19:29:19.253Z,12.20
2018-07-24T19:31:47.817Z,13.17
2018-07-24T19:34:17.313Z,12.57
2018-07-24T19:36:45.844Z,10.53
2018-07-24T19:39:14.471Z,10.60
2018-07-24T19:41:44.152Z,10.93
2018-07-24T19:44:12.947Z,10.80
2018-07-24T19:46:41.484Z,10.43
2018-07-24T19:49:17.927Z,11.80
2018-07-24T19:51:46.428Z,12.27
2018-07-24T19:54:15.359Z,12.30
2018-07-24T19:56:44.231Z,10.43
2018-07-24T19:59:36.686Z,11.40
2018-07-24T20:02:07.559Z,12.47
2018-07-24T20:04:36.490Z,12.17
2018-07-24T20:07:05.128Z,14.23
2018-07-24T20:09:34.079Z,13.60
2018-07-24T20:12:03.492Z,18.10
2018-07-24T20:14:32.057Z,15.40
2018-07-24T20:17:04.621Z,12.87
2018-07-24T20:19:33.545Z,12.27
2018-07-24T20:22:05.412Z,15.17
2018-07-24T20:27:14.892Z,14.37
2018-07-24T20:29:49.385Z,13.47
2018-07-24T20:32:18.744Z,12.37
2018-07-24T20:34:47.373Z,13.07
2018-07-24T20:37:16.404Z,14.03
2018-07-24T20:39:46.052Z,16.53
2018-07-24T20:42:15.101Z,16.73
2018-07-24T20:44:44.068Z,18.27
2018-07-24T20:47:20.277Z,18.43
2018-07-24T20:49:49.288Z,16.40
2018-07-24T20:52:18.370Z,16.53
2018-07-24T20:54:52.190Z,17.57
2018-07-24T20:57:21.297Z,17.20
2018-07-24T20:59:55.572Z,15.30
2018-07-24T21:02:24.327Z,14.80
2018-07-24T21:04:53.295Z,14.60
2018-07-24T21:07:22.408Z,14.40
2018-07-24T21:09:51.018Z,16.37
2018-07-24T21:12:20.400Z,14.93
2018-07-24T21:14:49.078Z,14.27
2018-07-24T21:17:17.837Z,14.27
2018-07-24T21:19:46.929Z,14.50
2018-07-24T21:22:15.890Z,16.17
2018-07-24T21:24:44.474Z,16.97
2018-07-24T21:27:13.573Z,15.23
2018-07-24T21:29:42.109Z,16.60
2018-07-24T21:32:10.759Z,15.80
2018-07-24T21:34:39.869Z,14.43
2018-07-24T21:37:08.495Z,14.67
2018-07-24T21:39:38.120Z,14.90
2018-07-24T21:42:07.075Z,14.37
2018-07-24T21:44:35.665Z,13.20
2018-07-24T21:47:04.444Z,14.40
2018-07-24T21:49:33.368Z,14.17
2018-07-24T21:52:09.302Z,13.93
2018-07-24T21:54:38.360Z,15.50
2018-07-24T21:57:09.290Z,14.63
2018-07-24T21:59:38.791Z,15.23
2018-07-24T22:02:07.614Z,15.47
2018-07-24T22:04:36.150Z,15.43
2018-07-24T22:07:04.867Z,14.10
2018-07-24T22:09:33.770Z,15.20
2018-07-24T22:12:05.060Z,15.40
2018-07-24T22:14:33.737Z,14.10
2018-07-24T22:17:02.277Z,12.40
2018-07-24T22:19:31.495Z,13.47
2018-07-24T22:22:00.272Z,14.27
2018-07-24T22:24:29.002Z,13.33
2018-07-24T22:26:57.669Z,11.27
2018-07-24T22:29:26.630Z,11.30
2018-07-24T22:31:55.375Z,12.00
2018-07-24T22:34:23.915Z,10.90
2018-07-24T22:36:52.561Z,11.57
2018-07-24T22:39:21.119Z,10.70
2018-07-24T22:41:50.606Z,10.83
2018-07-24T22:44:19.202Z,9.43
2018-07-24T22:46:48.193Z,9.67
2018-07-24T22:49:16.764Z,11.00
2018-07-24T22:51:45.315Z,9.30
2018-07-24T22:54:14.158Z,9.47
2018-07-24T22:56:42.787Z,10.00
2018-07-24T22:59:14.802Z,10.53
2018-07-24T23:01:43.728Z,11.03
2018-07-24T23:04:12.293Z,10.10
2018-07-24T23:06:40.914Z,9.70
2018-07-24T23:09:10.652Z,10.03
2018-07-24T23:11:39.661Z,11.07
2018-07-24T23:14:08.243Z,10.70
2018-07-24T23:16:37.155Z,9.90
2018-07-24T23:19:05.730Z,10.20
2018-07-24T23:21:34.232Z,11.50
2018-07-24T23:24:03.773Z,9.93
2018-07-24T23:26:35.662Z,11.50
2018-07-24T23:29:04.248Z,10.23
2018-07-24T23:31:32.742Z,10.13
2018-07-24T23:34:01.787Z,11.37
2018-07-24T23:36:30.844Z,10.10
2018-07-24T23:38:59.402Z,10.03
2018-07-24T23:41:27.944Z,11.57
2018-07-24T23:43:56.561Z,11.13
2018-07-24T23:46:27.674Z,12.20
2018-07-24T23:48:56.208Z,14.10
2018-07-24T23:51:24.793Z,14.37
2018-07-24T23:53:53.315Z,14.30
2018-07-24T23:56:23.300Z,15.30
2018-07-24T23:58:51.839Z,13.43
